createdAt,value
2022-08-30T00:01:34.289Z,100639.94
2022-08-30T00:04:02.899Z,100639.63
2022-08-30T00:06:31.185Z,100643.69
2022-08-30T00:08:59.875Z,100637.13
2022-08-30T00:11:30.220Z,100633.31
2022-08-30T00:13:58.964Z,100635.09
2022-08-30T00:16:27.789Z,100636.97
2022-08-30T00:18:56.212Z,100635.09
2022-08-30T00:21:24.654Z,100631.91
2022-08-30T00:23:52.498Z,100621.47
2022-08-30T00:26:20.538Z,100626.22
2022-08-30T00:28:49.634Z,100626.38
2022-08-30T00:31:17.441Z,100626.09
2022-08-30T00:33:45.276Z,100632.16
2022-08-30T00:36:13.054Z,100625.72
2022-08-30T00:38:40.859Z,100628.94
2022-08-30T00:41:09.079Z,100635.56
2022-08-30T00:43:37.260Z,100632.84
2022-08-30T00:46:08.619Z,100636.72
2022-08-30T00:48:40.975Z,100628.63
2022-08-30T00:51:11.375Z,100628.13
2022-08-30T00:53:43.627Z,100622.25
2022-08-30T00:56:12.334Z,100626.63
2022-08-30T00:58:47.145Z,100637.25
2022-08-30T01:01:17.174Z,100636.44
2022-08-30T01:03:46.421Z,100643.19
2022-08-30T01:06:16.068Z,100638.78
2022-08-30T01:08:43.984Z,100649.09
2022-08-30T01:11:12.955Z,100642.19
2022-08-30T01:13:41.225Z,100644.41
2022-08-30T01:16:09.647Z,100634.63
2022-08-30T01:18:39.540Z,100645.59
2022-08-30T01:21:16.329Z,100640.38
2022-08-30T01:23:47.990Z,100632.63
2022-08-30T01:26:17.536Z,100639.03
2022-08-30T01:28:51.562Z,100633.31
2022-08-30T01:31:19.616Z,100644.28
2022-08-30T01:33:47.570Z,100638.38
2022-08-30T01:36:17.322Z,100636.88
2022-08-30T01:38:50.840Z,100638.72
2022-08-30T01:41:22.149Z,100637.38
2022-08-30T01:43:51.326Z,100631.50
2022-08-30T01:46:21.065Z,100638.25
2022-08-30T01:48:50.337Z,100640.75
2022-08-30T01:51:23.503Z,100642.78
2022-08-30T01:53:53.074Z,100646.16
2022-08-30T01:56:21.951Z,100637.22
2022-08-30T01:58:49.739Z,100637.41
2022-08-30T02:01:20.408Z,100635.72
2022-08-30T02:03:49.102Z,100641.97
2022-08-30T02:06:19.955Z,100648.19
2022-08-30T02:08:48.471Z,100644.66
2022-08-30T02:11:18.312Z,100641.28
2022-08-30T02:13:47.504Z,100628.66
2022-08-30T02:16:18.857Z,100637.56
2022-08-30T02:18:46.792Z,100633.69
2022-08-30T02:21:15.104Z,100635.91
2022-08-30T02:23:44.033Z,100625.44
2022-08-30T02:26:13.562Z,100626.47
2022-08-30T02:28:49.682Z,100627.47
2022-08-30T02:31:20.428Z,100639.09
2022-08-30T02:33:50.154Z,100633.38
2022-08-30T02:36:18.433Z,100637.59
2022-08-30T02:38:46.276Z,100628.16
2022-08-30T02:41:14.385Z,100626.63
2022-08-30T02:43:43.504Z,100623.28
2022-08-30T02:46:11.640Z,100623.25
2022-08-30T02:48:39.527Z,100626.81
2022-08-30T02:51:10.578Z,100623.06
2022-08-30T02:53:39.808Z,100619.19
2022-08-30T02:56:08.263Z,100618.50
2022-08-30T02:58:36.722Z,100616.66
2022-08-30T03:01:06.239Z,100612.28
2022-08-30T03:03:34.210Z,100608.25
2022-08-30T03:06:03.278Z,100610.59
2022-08-30T03:08:31.144Z,100609.44
2022-08-30T03:10:58.949Z,100618.00
2022-08-30T03:13:26.836Z,100612.59
2022-08-30T03:15:54.747Z,100619.03
2022-08-30T03:18:24.833Z,100613.78
2022-08-30T03:20:54.001Z,100623.06
2022-08-30T03:23:22.345Z,100612.13
2022-08-30T03:25:50.115Z,100612.44
2022-08-30T03:28:18.504Z,100612.59
2022-08-30T03:30:47.737Z,100608.38
2022-08-30T03:33:15.822Z,100605.63
2022-08-30T03:35:48.075Z,100607.81
2022-08-30T03:38:15.891Z,100604.28
2022-08-30T03:40:44.791Z,100605.94
2022-08-30T03:43:12.772Z,100612.16
2022-08-30T03:45:41.055Z,100609.31
2022-08-30T03:48:09.075Z,100606.63
2022-08-30T03:50:37.102Z,100607.78
2022-08-30T03:53:06.666Z,100605.25
2022-08-30T03:55:35.074Z,100604.75
2022-08-30T03:58:03.222Z,100600.22
2022-08-30T04:00:31.346Z,100603.91
2022-08-30T04:02:59.411Z,100611.84
2022-08-30T04:05:28.367Z,100603.38
2022-08-30T04:07:56.454Z,100610.78
2022-08-30T04:10:26.652Z,100605.91
2022-08-30T04:12:54.741Z,100612.28
2022-08-30T04:15:22.794Z,100607.53
2022-08-30T04:17:51.173Z,100603.66
2022-08-30T04:20:19.343Z,100608.84
2022-08-30T04:22:47.626Z,100612.72
2022-08-30T04:25:16.104Z,100601.78
2022-08-30T04:27:46.527Z,100605.47
2022-08-30T04:30:16.144Z,100605.63
2022-08-30T04:32:44.533Z,100612.03
2022-08-30T04:35:13.557Z,100608.50
2022-08-30T04:37:41.861Z,100612.19
2022-08-30T04:40:11.192Z,100617.88
2022-08-30T04:42:39.549Z,100619.72
2022-08-30T04:45:11.991Z,100625.94
2022-08-30T04:47:40.265Z,100629.50
2022-08-30T04:50:09.014Z,100637.44
2022-08-30T04:52:37.118Z,100649.88
2022-08-30T04:55:06.386Z,100644.63
2022-08-30T04:57:34.664Z,100644.97
2022-08-30T05:00:02.808Z,100647.94
2022-08-30T05:02:32.346Z,100643.03
2022-08-30T05:05:17.707Z,100639.50
2022-08-30T05:07:45.706Z,100647.94
2022-08-30T05:10:13.842Z,100644.25
2022-08-30T05:12:43.461Z,100649.63
2022-08-30T05:15:13.141Z,100652.53
2022-08-30T05:17:42.952Z,100655.56
2022-08-30T05:20:12.805Z,100660.50
2022-08-30T05:22:42.305Z,100655.44
2022-08-30T05:25:10.649Z,100660.00
2022-08-30T05:27:42.829Z,100667.44
2022-08-30T05:30:12.671Z,100670.81
2022-08-30T05:32:42.462Z,100666.63
2022-08-30T05:35:13.571Z,100658.06
2022-08-30T05:37:41.628Z,100656.91
2022-08-30T05:40:12.196Z,100652.69
2022-08-30T05:42:41.482Z,100660.16
2022-08-30T05:45:10.989Z,100650.38
2022-08-30T05:47:39.521Z,100663.19
2022-08-30T05:50:10.142Z,100666.94
2022-08-30T05:52:38.941Z,100670.00
2022-08-30T05:55:08.102Z,100671.19
2022-08-30T05:57:37.744Z,100662.94
2022-08-30T06:00:12.512Z,100663.97
2022-08-30T06:02:40.610Z,100662.31
2022-08-30T06:05:10.934Z,100647.66
2022-08-30T06:07:42.399Z,100653.03
2022-08-30T06:10:12.309Z,100660.13
2022-08-30T06:12:40.253Z,100663.34
2022-08-30T06:15:09.465Z,100656.78
2022-08-30T06:17:39.570Z,100657.13
2022-08-30T06:20:10.253Z,100663.38
2022-08-30T06:22:38.916Z,100660.50
2022-08-30T06:25:07.539Z,100661.69
2022-08-30T06:27:35.368Z,100661.03
2022-08-30T06:30:03.274Z,100661.03
2022-08-30T06:32:31.109Z,100659.00
2022-08-30T06:34:58.916Z,100649.22
2022-08-30T06:37:30.122Z,100661.88
2022-08-30T06:39:58.634Z,100657.16
2022-08-30T06:42:31.682Z,100664.38
2022-08-30T06:44:59.713Z,100667.25
2022-08-30T06:47:27.490Z,100667.22
2022-08-30T06:49:55.351Z,100665.69
2022-08-30T06:52:23.338Z,100661.78
2022-08-30T06:54:53.278Z,100675.41
2022-08-30T06:57:21.075Z,100664.41
2022-08-30T06:59:48.880Z,100662.53
2022-08-30T07:02:16.922Z,100671.25
2022-08-30T07:04:44.661Z,100672.94
2022-08-30T07:07:12.813Z,100671.53
2022-08-30T07:09:43.310Z,100679.59
2022-08-30T07:12:13.245Z,100678.50
2022-08-30T07:14:41.418Z,100680.00
2022-08-30T07:17:23.800Z,100670.97
2022-08-30T07:19:51.903Z,100673.19
2022-08-30T07:22:19.745Z,100678.50
2022-08-30T07:24:48.068Z,100669.22
2022-08-30T07:27:17.546Z,100684.66
2022-08-30T07:29:45.606Z,100679.44
2022-08-30T07:32:13.636Z,100684.50
2022-08-30T07:34:41.703Z,100680.63
2022-08-30T07:37:09.737Z,100690.34
2022-08-30T07:39:47.743Z,100677.38
2022-08-30T07:42:17.186Z,100675.69
2022-08-30T07:44:45.339Z,100681.91
2022-08-30T07:47:13.530Z,100679.16
2022-08-30T07:49:41.335Z,100673.06
2022-08-30T07:52:09.500Z,100676.31
2022-08-30T07:54:37.445Z,100672.75
2022-08-30T07:57:05.594Z,100686.31
2022-08-30T07:59:36.187Z,100678.22
2022-08-30T08:02:04.696Z,100680.00
2022-08-30T08:04:33.210Z,100681.09
2022-08-30T08:07:01.232Z,100678.84
2022-08-30T08:09:29.100Z,100675.94
2022-08-30T08:11:57.111Z,100683.00
2022-08-30T08:14:24.890Z,100691.78
2022-08-30T08:16:54.498Z,100685.72
2022-08-30T08:19:22.286Z,100684.69
2022-08-30T08:21:59.383Z,100690.16
2022-08-30T08:24:38.199Z,100685.63
2022-08-30T08:27:06.400Z,100676.69
2022-08-30T08:29:34.466Z,100677.41
2022-08-30T08:32:04.013Z,100681.59
2022-08-30T08:34:31.927Z,100675.56
2022-08-30T08:36:59.750Z,100668.47
2022-08-30T08:39:27.533Z,100673.94
2022-08-30T08:42:04.195Z,100674.59
2022-08-30T08:47:22.493Z,100671.72
2022-08-30T08:49:54.228Z,100673.00
2022-08-30T08:52:51.012Z,100666.31
2022-08-30T08:55:23.389Z,100658.94
2022-08-30T08:57:52.414Z,100661.47
2022-08-30T09:00:20.745Z,100665.56
2022-08-30T09:02:58.452Z,100657.28
2022-08-30T09:05:30.426Z,100661.19
2022-08-30T09:08:04.581Z,100662.81
2022-08-30T09:10:50.052Z,100660.94
2022-08-30T09:13:19.051Z,100650.53
2022-08-30T09:15:49.920Z,100655.75
2022-08-30T09:18:42.753Z,100652.41
2022-08-30T09:21:14.938Z,100662.84
2022-08-30T09:23:50.845Z,100663.31
2022-08-30T09:26:31.764Z,100662.00
2022-08-30T09:29:01.030Z,100660.03
2022-08-30T09:31:30.688Z,100661.00
2022-08-30T09:34:05.246Z,100656.78
2022-08-30T09:36:36.531Z,100647.56
2022-08-30T09:39:07.187Z,100646.88
2022-08-30T09:41:42.557Z,100649.81
2022-08-30T09:44:17.653Z,100643.03
2022-08-30T09:46:48.272Z,100632.22
2022-08-30T09:49:38.806Z,100624.91
2022-08-30T09:52:19.471Z,100623.47
2022-08-30T09:55:03.287Z,100612.25
2022-08-30T09:57:39.067Z,100613.72
2022-08-30T10:00:09.786Z,100613.47
2022-08-30T10:02:58.780Z,100613.09
2022-08-30T10:05:33.553Z,100607.81
2022-08-30T10:08:12.563Z,100615.34
2022-08-30T10:10:48.591Z,100610.66
2022-08-30T10:13:42.991Z,100610.38
2022-08-30T10:16:22.793Z,100608.28
2022-08-30T10:19:04.299Z,100603.38
2022-08-30T10:21:41.506Z,100597.25
2022-08-30T10:24:14.079Z,100601.44
2022-08-30T10:26:53.786Z,100602.19
2022-08-30T10:29:26.371Z,100599.81
2022-08-30T10:31:59.693Z,100598.47
2022-08-30T10:34:34.003Z,100592.31
2022-08-30T10:37:08.144Z,100597.72
2022-08-30T10:39:42.260Z,100582.53
2022-08-30T10:42:16.433Z,100585.03
2022-08-30T10:44:49.857Z,100585.97
2022-08-30T10:47:26.822Z,100585.31
2022-08-30T10:50:04.060Z,100580.72
2022-08-30T10:52:37.566Z,100576.84
2022-08-30T10:55:10.833Z,100566.88
2022-08-30T10:57:43.502Z,100573.81
2022-08-30T11:00:14.879Z,100573.59
2022-08-30T11:03:10.556Z,100567.66
2022-08-30T11:06:01.292Z,100564.81
2022-08-30T11:08:47.813Z,100566.34
2022-08-30T11:11:26.797Z,100556.06
2022-08-30T11:13:57.515Z,100550.03
2022-08-30T11:16:37.862Z,100557.44
2022-08-30T11:19:17.001Z,100549.47
2022-08-30T11:21:47.761Z,100562.03
2022-08-30T11:24:20.963Z,100553.59
2022-08-30T11:26:58.762Z,100550.84
2022-08-30T11:29:36.914Z,100554.31
2022-08-30T11:32:23.991Z,100543.59
2022-08-30T11:35:00.553Z,100547.84
2022-08-30T11:37:37.124Z,100539.59
2022-08-30T11:40:14.260Z,100552.00
2022-08-30T11:42:48.410Z,100547.56
2022-08-30T11:45:46.985Z,100539.38
2022-08-30T11:48:54.424Z,100544.34
2022-08-30T11:52:26.305Z,100538.81
2022-08-30T11:55:00.025Z,100535.28
2022-08-30T11:57:37.625Z,100536.66
2022-08-30T12:00:11.971Z,100527.06
2022-08-30T12:02:48.659Z,100529.25
2022-08-30T12:05:52.180Z,100526.25
2022-08-30T12:08:47.313Z,100528.16
2022-08-30T12:12:03.902Z,100515.72
2022-08-30T12:14:49.132Z,100520.13
2022-08-30T12:17:43.078Z,100517.66
2022-08-30T12:20:23.026Z,100514.63
2022-08-30T12:22:52.352Z,100515.16
2022-08-30T12:25:28.544Z,100506.63
2022-08-30T12:28:14.810Z,100509.59
2022-08-30T12:30:46.879Z,100507.97
2022-08-30T12:33:29.039Z,100515.97
2022-08-30T12:35:59.500Z,100506.03
2022-08-30T12:38:28.339Z,100514.09
2022-08-30T12:41:01.447Z,100501.63
2022-08-30T12:43:38.814Z,100496.66
2022-08-30T12:46:15.095Z,100492.78
2022-08-30T12:48:44.682Z,100503.53
2022-08-30T12:51:28.367Z,100488.84
2022-08-30T12:54:05.939Z,100488.84
2022-08-30T12:56:51.705Z,100489.94
2022-08-30T12:59:52.812Z,100486.06
2022-08-30T13:02:25.093Z,100482.41
2022-08-30T13:04:55.740Z,100484.16
2022-08-30T13:07:29.781Z,100475.34
2022-08-30T13:10:04.962Z,100470.16
2022-08-30T13:12:35.009Z,100462.09
2022-08-30T13:15:17.623Z,100467.41
2022-08-30T13:17:49.285Z,100466.00
2022-08-30T13:20:26.804Z,100458.28
2022-08-30T13:23:09.137Z,100462.66
2022-08-30T13:25:40.551Z,100462.66
2022-08-30T13:28:09.299Z,100458.00
2022-08-30T13:30:38.533Z,100454.09
2022-08-30T13:33:11.364Z,100448.03
2022-08-30T13:35:39.392Z,100447.72
2022-08-30T13:38:07.331Z,100444.13
2022-08-30T13:40:35.659Z,100441.41
2022-08-30T13:43:03.876Z,100438.06
2022-08-30T13:45:47.327Z,100429.50
2022-08-30T13:48:23.646Z,100433.91
2022-08-30T13:50:53.445Z,100426.38
2022-08-30T13:53:51.871Z,100433.28
2022-08-30T13:56:10.140Z,100424.16
2022-08-30T13:58:42.188Z,100428.59
2022-08-30T14:01:10.422Z,100413.41
2022-08-30T14:04:13.304Z,100410.34
2022-08-30T14:06:34.110Z,100416.44
2022-08-30T14:09:04.543Z,100412.00
2022-08-30T14:11:33.080Z,100403.75
2022-08-30T14:14:25.149Z,100405.41
2022-08-30T14:16:49.570Z,100404.03
2022-08-30T14:19:19.464Z,100400.44
2022-08-30T14:21:49.156Z,100400.22
2022-08-30T14:24:20.019Z,100392.16
2022-08-30T14:26:51.533Z,100388.31
2022-08-30T14:29:22.798Z,100387.50
2022-08-30T14:31:52.277Z,100387.72
2022-08-30T14:34:22.984Z,100377.75
2022-08-30T14:36:50.865Z,100376.41
2022-08-30T14:39:21.306Z,100374.84
2022-08-30T14:41:51.945Z,100369.81
2022-08-30T14:44:21.677Z,100370.91
2022-08-30T14:46:51.080Z,100365.97
2022-08-30T14:49:21.292Z,100366.22
2022-08-30T14:51:49.663Z,100359.88
2022-08-30T14:54:21.733Z,100361.56
2022-08-30T14:56:49.605Z,100354.34
2022-08-30T14:59:19.002Z,100348.03
2022-08-30T15:01:47.377Z,100346.63
2022-08-30T15:04:16.383Z,100351.59
2022-08-30T15:06:48.097Z,100346.34
2022-08-30T15:09:23.097Z,100349.94
2022-08-30T15:11:52.546Z,100351.59
2022-08-30T15:14:20.654Z,100340.53
2022-08-30T15:16:48.540Z,100340.81
2022-08-30T15:19:16.648Z,100340.28
2022-08-30T15:21:47.649Z,100333.91
2022-08-30T15:24:19.774Z,100340.84
2022-08-30T15:26:52.981Z,100327.34
2022-08-30T15:29:21.831Z,100330.41
2022-08-30T15:31:50.194Z,100332.91
2022-08-30T15:34:20.649Z,100326.84
2022-08-30T15:36:50.459Z,100326.00
2022-08-30T15:39:18.716Z,100323.25
2022-08-30T15:41:57.174Z,100325.72
2022-08-30T15:44:26.837Z,100325.72
2022-08-30T15:46:55.456Z,100325.72
2022-08-30T15:49:25.222Z,100318.00
2022-08-30T15:51:54.836Z,100326.22
2022-08-30T15:54:24.516Z,100320.41
2022-08-30T15:56:59.480Z,100331.09
2022-08-30T15:59:28.105Z,100334.59
2022-08-30T16:01:56.258Z,100335.09
2022-08-30T16:04:25.611Z,100325.91
2022-08-30T16:06:55.405Z,100327.53
2022-08-30T16:09:24.883Z,100315.84
2022-08-30T16:11:52.884Z,100314.09
2022-08-30T16:14:20.792Z,100310.78
2022-08-30T16:16:48.719Z,100305.47
2022-08-30T16:19:17.011Z,100307.03
2022-08-30T16:21:44.946Z,100313.00
2022-08-30T16:24:15.710Z,100309.13
2022-08-30T16:26:44.765Z,100298.28
2022-08-30T16:29:14.193Z,100310.34
2022-08-30T16:31:44.894Z,100308.06
2022-08-30T16:34:14.025Z,100312.13
2022-08-30T16:36:43.207Z,100312.34
2022-08-30T16:39:12.816Z,100314.69
2022-08-30T16:41:44.339Z,100308.88
2022-08-30T16:44:12.684Z,100309.31
2022-08-30T16:46:42.690Z,100298.22
2022-08-30T16:49:11.692Z,100302.25
2022-08-30T16:51:39.675Z,100304.66
2022-08-30T16:54:09.017Z,100309.69
2022-08-30T16:56:38.060Z,100308.72
2022-08-30T16:59:11.306Z,100308.03
2022-08-30T17:01:41.349Z,100323.25
2022-08-30T17:04:09.854Z,100317.38
2022-08-30T17:06:38.158Z,100319.72
2022-08-30T17:09:06.728Z,100317.97
2022-08-30T17:11:35.799Z,100316.13
2022-08-30T17:14:03.974Z,100320.72
2022-08-30T17:16:34.959Z,100325.53
2022-08-30T17:19:04.296Z,100321.63
2022-08-30T17:21:33.191Z,100321.81
2022-08-30T17:24:02.527Z,100324.13
2022-08-30T17:26:32.324Z,100329.78
2022-08-30T17:29:00.579Z,100332.41
2022-08-30T17:31:30.545Z,100335.31
2022-08-30T17:34:03.226Z,100328.06
2022-08-30T17:36:35.207Z,100330.97
2022-08-30T17:39:10.992Z,100333.59
2022-08-30T17:41:45.221Z,100346.63
2022-08-30T17:44:19.031Z,100346.19
2022-08-30T17:46:47.254Z,100349.66
2022-08-30T17:49:17.021Z,100350.88
2022-08-30T17:51:45.748Z,100349.34
2022-08-30T17:54:15.737Z,100350.09
2022-08-30T17:56:44.485Z,100346.03
2022-08-30T17:59:12.462Z,100349.50
2022-08-30T18:01:41.822Z,100349.03
2022-08-30T18:04:10.945Z,100347.53
2022-08-30T18:06:40.460Z,100348.22
2022-08-30T18:09:09.679Z,100355.53
2022-08-30T18:11:40.704Z,100356.44
2022-08-30T18:14:10.932Z,100362.28
2022-08-30T18:16:49.689Z,100363.03
2022-08-30T18:19:21.987Z,100361.00
2022-08-30T18:21:51.772Z,100364.53
2022-08-30T18:24:19.945Z,100370.97
2022-08-30T18:26:47.819Z,100372.72
2022-08-30T18:29:26.017Z,100379.63
2022-08-30T18:31:58.436Z,100375.06
2022-08-30T18:34:26.257Z,100370.81
2022-08-30T18:36:55.599Z,100371.72
2022-08-30T18:39:23.544Z,100375.16
2022-08-30T18:41:53.098Z,100375.06
2022-08-30T18:44:33.128Z,100379.97
2022-08-30T18:47:03.729Z,100382.00
2022-08-30T18:49:34.657Z,100377.44
2022-08-30T18:52:07.407Z,100385.72
2022-08-30T18:54:39.473Z,100388.78
2022-08-30T18:57:09.919Z,100390.31
2022-08-30T18:59:38.301Z,100392.88
2022-08-30T19:02:06.937Z,100391.06
2022-08-30T19:04:35.596Z,100388.66
2022-08-30T19:07:07.400Z,100388.31
2022-08-30T19:09:35.446Z,100396.13
2022-08-30T19:12:03.714Z,100402.22
2022-08-30T19:14:37.180Z,100402.91
2022-08-30T19:19:53.643Z,100411.84
2022-08-30T19:22:26.838Z,100415.28
2022-08-30T19:24:58.254Z,100408.00
2022-08-30T19:27:38.033Z,100417.91
2022-08-30T19:30:10.940Z,100415.88
2022-08-30T19:32:38.931Z,100416.56
2022-08-30T19:35:08.016Z,100411.53
2022-08-30T19:37:38.073Z,100406.97
2022-08-30T19:40:08.288Z,100419.84
2022-08-30T19:42:41.825Z,100413.75
2022-08-30T19:45:17.711Z,100414.84
2022-08-30T19:47:46.648Z,100420.97
2022-08-30T19:50:15.648Z,100414.47
2022-08-30T19:52:50.972Z,100416.13
2022-08-30T19:55:23.819Z,100422.47
2022-08-30T19:57:56.146Z,100423.16
2022-08-30T20:00:24.154Z,100419.81
2022-08-30T20:02:52.438Z,100423.84
2022-08-30T20:05:21.318Z,100424.06
2022-08-30T20:10:38.803Z,100423.47
2022-08-30T20:13:07.100Z,100426.03
2022-08-30T20:15:37.189Z,100423.97
2022-08-30T20:18:13.533Z,100427.56
2022-08-30T20:20:49.830Z,100427.00
2022-08-30T20:23:21.668Z,100434.78
2022-08-30T20:24:32.324Z,100402.78
2022-08-30T20:25:52.195Z,100436.88
2022-08-30T20:28:20.593Z,100431.03
2022-08-30T20:30:48.617Z,100425.22
2022-08-30T20:33:17.135Z,100428.31
2022-08-30T20:35:49.098Z,100430.66
2022-08-30T20:38:21.972Z,100433.81
2022-08-30T20:40:56.814Z,100437.38
2022-08-30T20:43:26.981Z,100432.34
2022-08-30T20:45:56.175Z,100431.72
2022-08-30T20:48:26.111Z,100426.13
2022-08-30T20:50:53.954Z,100431.97
2022-08-30T20:53:23.210Z,100423.63
2022-08-30T20:55:51.195Z,100432.22
2022-08-30T20:58:19.247Z,100434.34
2022-08-30T21:00:51.033Z,100433.09
2022-08-30T21:03:26.010Z,100432.47
2022-08-30T21:05:57.123Z,100426.22
2022-08-30T21:08:26.969Z,100424.97
2022-08-30T21:10:54.982Z,100429.78
2022-08-30T21:13:23.202Z,100432.53
2022-08-30T21:15:52.616Z,100440.91
2022-08-30T21:18:22.958Z,100433.38
2022-08-30T21:20:50.772Z,100438.22
2022-08-30T21:23:18.617Z,100442.78
2022-08-30T21:25:47.819Z,100446.59
2022-08-30T21:28:17.229Z,100444.91
2022-08-30T21:30:45.746Z,100447.84
2022-08-30T21:33:13.739Z,100458.75
2022-08-30T21:35:59.003Z,100462.09
2022-08-30T21:38:26.962Z,100463.78
2022-08-30T21:40:56.393Z,100458.78
2022-08-30T21:43:24.288Z,100467.56
2022-08-30T21:45:53.584Z,100465.44
2022-08-30T21:48:21.577Z,100462.31
2022-08-30T21:50:49.533Z,100464.84
2022-08-30T21:53:17.507Z,100464.00
2022-08-30T21:55:45.849Z,100463.38
2022-08-30T21:58:17.537Z,100473.47
2022-08-30T22:00:45.485Z,100471.56
2022-08-30T22:03:13.658Z,100471.56
2022-08-30T22:05:41.982Z,100481.81
2022-08-30T22:08:09.879Z,100476.78
2022-08-30T22:10:37.824Z,100478.50
2022-08-30T22:13:10.067Z,100477.63
2022-08-30T22:15:39.933Z,100469.69
2022-08-30T22:18:08.294Z,100486.84
2022-08-30T22:20:36.124Z,100488.72
2022-08-30T22:23:04.722Z,100492.88
2022-08-30T22:25:32.611Z,100491.41
2022-08-30T22:28:00.453Z,100496.41
2022-08-30T22:30:30.236Z,100495.78
2022-08-30T22:32:59.849Z,100492.63
2022-08-30T22:35:27.739Z,100494.72
2022-08-30T22:37:55.555Z,100499.31
2022-08-30T22:40:23.646Z,100499.31
2022-08-30T22:42:51.552Z,100495.97
2022-08-30T22:45:19.621Z,100494.28
2022-08-30T22:47:47.930Z,100492.63
2022-08-30T22:50:17.239Z,100490.94
2022-08-30T22:52:45.099Z,100487.56
2022-08-30T22:55:13.041Z,100486.50
2022-08-30T22:57:41.580Z,100487.34
2022-08-30T23:00:15.073Z,100498.00
2022-08-30T23:02:43.892Z,100501.13
2022-08-30T23:05:12.637Z,100502.56
2022-08-30T23:07:42.244Z,100503.81
2022-08-30T23:10:12.216Z,100501.50
2022-08-30T23:12:40.823Z,100502.56
2022-08-30T23:15:12.125Z,100507.34
2022-08-30T23:17:40.177Z,100511.72
2022-08-30T23:20:09.426Z,100517.38
2022-08-30T23:22:37.399Z,100514.88
2022-08-30T23:25:25.452Z,100518.41
2022-08-30T23:28:11.710Z,100519.47
2022-08-30T23:31:02.853Z,100524.47
2022-08-30T23:33:48.239Z,100510.63
2022-08-30T23:36:33.946Z,100520.47
2022-08-30T23:39:21.315Z,100521.50
2022-08-30T23:42:08.037Z,100521.94
2022-08-30T23:44:53.167Z,100522.75
2022-08-30T23:47:38.306Z,100517.72
2022-08-30T23:50:24.713Z,100524.16
2022-08-30T23:53:10.235Z,100522.47
2022-08-30T23:55:57.663Z,100524.97
2022-08-30T23:58:44.011Z,100520.56
